createdAt,value
2023-01-19T00:01:27.077Z,0.55
2023-01-19T00:03:53.967Z,0.60
2023-01-19T00:06:21.912Z,0.40
2023-01-19T00:08:50.488Z,0.60
2023-01-19T00:11:18.266Z,0.50
2023-01-19T00:13:50.158Z,0.40
2023-01-19T00:16:18.944Z,0.40
2023-01-19T00:18:46.606Z,0.50
2023-01-19T00:21:17.752Z,0.30
2023-01-19T00:23:47.780Z,0.47
2023-01-19T00:26:16.526Z,0.50
2023-01-19T00:28:44.982Z,0.50
2023-01-19T00:31:12.763Z,0.47
2023-01-19T00:33:40.020Z,0.38
2023-01-19T00:36:07.148Z,0.50
2023-01-19T00:38:34.043Z,0.50
2023-01-19T00:41:00.923Z,0.40
2023-01-19T00:43:28.535Z,0.30
2023-01-19T00:45:55.424Z,0.40
2023-01-19T00:48:22.308Z,0.30
2023-01-19T00:50:49.504Z,0.50
2023-01-19T00:53:16.418Z,0.40
2023-01-19T00:55:43.316Z,0.30
2023-01-19T00:58:10.223Z,0.20
2023-01-19T01:00:37.208Z,0.52
2023-01-19T01:03:04.908Z,0.30
2023-01-19T01:05:32.173Z,0.30
2023-01-19T01:07:59.140Z,0.35
2023-01-19T01:10:29.236Z,0.30
2023-01-19T01:12:57.892Z,0.47
2023-01-19T01:15:44.163Z,0.20
2023-01-19T01:18:11.089Z,0.30
2023-01-19T01:20:37.989Z,0.20
2023-01-19T01:23:04.895Z,0.40
2023-01-19T01:25:34.312Z,0.30
2023-01-19T01:28:01.185Z,0.30
2023-01-19T01:30:27.963Z,0.38
2023-01-19T01:32:55.150Z,0.40
2023-01-19T01:35:22.055Z,0.30
2023-01-19T01:37:48.976Z,0.30
2023-01-19T01:40:18.589Z,0.25
2023-01-19T01:42:46.046Z,0.20
2023-01-19T01:45:32.431Z,0.20
2023-01-19T01:48:10.761Z,0.28
2023-01-19T01:51:02.161Z,0.30
2023-01-19T01:53:31.061Z,0.30
2023-01-19T01:55:58.683Z,0.20
2023-01-19T01:58:26.020Z,0.30
2023-01-19T02:01:11.679Z,0.30
2023-01-19T02:03:38.612Z,0.30
2023-01-19T02:06:07.976Z,0.20
2023-01-19T02:09:02.249Z,0.20
2023-01-19T02:11:49.569Z,0.32
2023-01-19T02:14:16.634Z,0.30
2023-01-19T02:16:43.663Z,0.25
2023-01-19T02:19:16.792Z,0.20
2023-01-19T02:22:00.042Z,0.30
2023-01-19T02:24:27.744Z,0.30
2023-01-19T02:26:55.439Z,0.20
2023-01-19T02:29:25.429Z,0.10
2023-01-19T02:31:53.088Z,0.15
2023-01-19T02:34:21.651Z,0.30
2023-01-19T02:37:12.940Z,0.32
2023-01-19T02:39:45.584Z,0.30
2023-01-19T02:42:20.315Z,0.20
2023-01-19T02:44:50.531Z,0.20
2023-01-19T02:47:17.351Z,0.30
2023-01-19T02:49:44.294Z,0.30
2023-01-19T02:52:18.296Z,0.20
2023-01-19T02:55:13.027Z,0.40
2023-01-19T02:57:49.845Z,0.20
2023-01-19T03:00:33.129Z,0.20
2023-01-19T03:03:46.624Z,0.50
2023-01-19T03:06:30.706Z,0.20
2023-01-19T03:09:14.393Z,0.20
2023-01-19T03:11:47.688Z,0.20
2023-01-19T03:14:20.877Z,0.20
2023-01-19T03:17:02.837Z,0.10
2023-01-19T03:19:36.794Z,0.15
2023-01-19T03:22:10.015Z,0.20
2023-01-19T03:24:41.940Z,0.28
2023-01-19T03:27:31.490Z,0.25
2023-01-19T03:30:22.892Z,0.30
2023-01-19T03:35:25.320Z,0.17
2023-01-19T03:37:56.391Z,0.17
2023-01-19T03:40:24.921Z,0.30
2023-01-19T03:42:52.465Z,0.22
2023-01-19T03:45:19.883Z,0.10
2023-01-19T03:47:46.961Z,0.30
2023-01-19T03:50:30.453Z,0.20
2023-01-19T03:53:08.170Z,0.20
2023-01-19T03:55:37.193Z,0.10
2023-01-19T03:58:03.988Z,0.10
2023-01-19T04:00:31.405Z,0.20
2023-01-19T04:02:58.871Z,0.20
2023-01-19T04:05:26.076Z,0.20
2023-01-19T04:07:53.546Z,0.20
2023-01-19T04:10:20.939Z,0.20
2023-01-19T04:12:48.459Z,0.20
2023-01-19T04:15:16.160Z,0.20
2023-01-19T04:17:43.058Z,0.20
2023-01-19T04:20:10.423Z,0.25
2023-01-19T04:22:39.320Z,0.20
2023-01-19T04:25:07.698Z,0.20
2023-01-19T04:27:34.949Z,0.17
2023-01-19T04:30:01.883Z,0.30
2023-01-19T04:32:28.693Z,0.10
2023-01-19T04:34:55.682Z,0.17
2023-01-19T04:37:22.788Z,0.10
2023-01-19T04:39:49.795Z,0.17
2023-01-19T04:42:17.261Z,0.20
2023-01-19T04:44:44.170Z,0.20
2023-01-19T04:47:11.617Z,0.22
2023-01-19T04:49:38.482Z,0.20
2023-01-19T04:52:06.452Z,0.30
2023-01-19T04:54:33.491Z,0.25
2023-01-19T04:57:00.471Z,0.10
2023-01-19T04:59:27.360Z,0.10
2023-01-19T05:01:54.393Z,0.17
2023-01-19T05:04:22.648Z,0.17
2023-01-19T05:06:49.745Z,0.10
2023-01-19T05:09:16.623Z,0.28
2023-01-19T05:11:43.540Z,0.28
2023-01-19T05:14:10.408Z,0.10
2023-01-19T05:16:37.261Z,0.10
2023-01-19T05:19:04.116Z,0.20
2023-01-19T05:21:31.201Z,0.20
2023-01-19T05:23:57.987Z,0.15
2023-01-19T05:26:24.831Z,0.10
2023-01-19T05:28:51.711Z,0.10
2023-01-19T05:31:19.575Z,0.10
2023-01-19T05:33:46.595Z,0.10
2023-01-19T05:36:13.498Z,0.10
2023-01-19T05:38:40.469Z,0.70
2023-01-19T05:41:07.376Z,0.40
2023-01-19T05:43:34.322Z,0.22
2023-01-19T05:46:01.195Z,0.32
2023-01-19T05:48:28.024Z,0.88
2023-01-19T05:50:58.581Z,0.47
2023-01-19T05:53:26.012Z,1.50
2023-01-19T05:55:52.865Z,1.30
2023-01-19T05:58:19.723Z,1.27
2023-01-19T06:00:46.594Z,0.57
2023-01-19T06:03:13.589Z,0.60
2023-01-19T06:05:40.491Z,0.50
2023-01-19T06:08:07.322Z,0.70
2023-01-19T06:10:34.239Z,0.50
2023-01-19T06:13:01.334Z,0.68
2023-01-19T06:15:28.490Z,0.82
2023-01-19T06:17:55.495Z,2.13
2023-01-19T06:20:22.495Z,0.90
2023-01-19T06:22:49.388Z,2.03
2023-01-19T06:25:16.322Z,2.20
2023-01-19T06:27:46.410Z,2.28
2023-01-19T06:30:13.994Z,1.88
2023-01-19T06:32:41.157Z,1.58
2023-01-19T06:35:08.488Z,1.40
2023-01-19T06:37:35.852Z,1.52
2023-01-19T06:40:03.050Z,1.30
2023-01-19T06:42:29.928Z,3.05
2023-01-19T06:44:56.764Z,2.00
2023-01-19T06:47:23.741Z,1.13
2023-01-19T06:49:50.815Z,1.60
2023-01-19T06:52:18.659Z,1.20
2023-01-19T06:54:46.476Z,1.15
2023-01-19T06:57:14.889Z,0.93
2023-01-19T06:59:42.071Z,1.10
2023-01-19T07:02:26.400Z,0.80
2023-01-19T07:04:54.937Z,0.90
2023-01-19T07:07:21.852Z,0.85
2023-01-19T07:09:48.766Z,0.55
2023-01-19T07:12:15.619Z,0.60
2023-01-19T07:14:42.771Z,0.75
2023-01-19T07:17:09.707Z,0.77
2023-01-19T07:19:36.956Z,0.40
2023-01-19T07:22:04.037Z,0.50
2023-01-19T07:24:31.064Z,0.57
2023-01-19T07:26:58.117Z,0.80
2023-01-19T07:29:25.238Z,1.10
2023-01-19T07:31:54.820Z,2.30
2023-01-19T07:34:22.138Z,1.63
2023-01-19T07:36:49.482Z,1.00
2023-01-19T07:39:16.731Z,1.20
2023-01-19T07:41:43.635Z,0.80
2023-01-19T07:44:10.604Z,0.30
2023-01-19T07:46:37.886Z,0.28
2023-01-19T07:49:05.180Z,0.60
2023-01-19T07:51:32.209Z,0.20
2023-01-19T07:53:59.240Z,0.20
2023-01-19T07:56:28.171Z,0.40
2023-01-19T07:58:55.514Z,0.30
2023-01-19T08:01:22.987Z,0.22
2023-01-19T08:03:50.362Z,0.20
2023-01-19T08:06:23.201Z,0.30
2023-01-19T08:08:50.639Z,0.10
2023-01-19T08:11:17.674Z,0.20
2023-01-19T08:13:44.604Z,0.30
2023-01-19T08:16:11.550Z,0.20
2023-01-19T08:18:38.770Z,0.15
2023-01-19T08:21:05.966Z,0.17
2023-01-19T08:23:33.047Z,0.30
2023-01-19T08:26:00.454Z,0.40
2023-01-19T08:28:27.601Z,0.10
2023-01-19T08:30:54.910Z,0.10
2023-01-19T08:33:24.200Z,0.10
2023-01-19T08:35:53.944Z,0.10
2023-01-19T08:38:21.043Z,0.10
2023-01-19T08:40:49.242Z,0.15
2023-01-19T08:43:17.603Z,0.10
2023-01-19T08:45:50.330Z,0.10
2023-01-19T08:48:19.950Z,0.20
2023-01-19T08:50:48.137Z,0.13
2023-01-19T08:53:15.515Z,0.10
2023-01-19T08:55:42.906Z,0.10
2023-01-19T08:58:10.327Z,0.10
2023-01-19T09:00:39.197Z,0.15
2023-01-19T09:03:08.267Z,0.13
2023-01-19T09:05:38.970Z,0.10
2023-01-19T09:08:09.607Z,0.20
2023-01-19T09:10:38.319Z,0.17
2023-01-19T09:13:08.609Z,0.10
2023-01-19T09:15:38.523Z,0.10
2023-01-19T09:18:08.356Z,0.10
2023-01-19T09:20:36.398Z,0.10
2023-01-19T09:23:04.426Z,0.10
2023-01-19T09:25:31.835Z,0.10
2023-01-19T09:28:02.908Z,0.10
2023-01-19T09:30:30.247Z,0.10
2023-01-19T09:33:02.730Z,0.10
2023-01-19T09:35:29.720Z,0.30
2023-01-19T09:37:56.965Z,0.10
2023-01-19T09:40:24.480Z,0.00
2023-01-19T09:43:16.894Z,0.10
2023-01-19T09:45:49.260Z,0.10
2023-01-19T09:48:48.045Z,0.10
2023-01-19T09:51:23.120Z,0.10
2023-01-19T09:54:00.279Z,0.10
2023-01-19T09:56:29.723Z,0.10
2023-01-19T09:58:57.348Z,0.10
2023-01-19T10:01:35.003Z,0.10
2023-01-19T10:04:40.315Z,0.10
2023-01-19T10:07:17.592Z,0.20
2023-01-19T10:09:57.446Z,0.20
2023-01-19T10:12:46.425Z,0.20
2023-01-19T10:15:50.298Z,0.10
2023-01-19T10:18:23.297Z,0.20
2023-01-19T10:20:56.419Z,0.30
2023-01-19T10:23:43.825Z,0.40
2023-01-19T10:26:18.241Z,0.20
2023-01-19T10:28:48.661Z,0.40
2023-01-19T10:31:19.922Z,0.20
2023-01-19T10:36:24.808Z,0.20
2023-01-19T10:38:52.291Z,0.28
2023-01-19T10:41:30.989Z,0.30
2023-01-19T10:44:03.789Z,0.22
2023-01-19T10:46:44.538Z,0.40
2023-01-19T10:49:36.320Z,0.40
2023-01-19T10:52:05.630Z,0.20
2023-01-19T10:54:35.222Z,0.20
2023-01-19T10:57:10.045Z,0.20
2023-01-19T10:59:45.895Z,0.20
2023-01-19T11:02:26.905Z,0.20
2023-01-19T11:05:02.653Z,0.30
2023-01-19T11:07:33.329Z,0.30
2023-01-19T11:10:28.439Z,0.30
2023-01-19T11:13:02.520Z,0.25
2023-01-19T11:15:49.208Z,0.30
2023-01-19T11:18:37.820Z,0.20
2023-01-19T11:21:09.728Z,0.50
2023-01-19T11:23:51.325Z,0.20
2023-01-19T11:26:41.183Z,0.30
2023-01-19T11:29:21.881Z,0.50
2023-01-19T11:31:50.925Z,0.73
2023-01-19T11:34:34.524Z,0.47
2023-01-19T11:37:25.623Z,0.32
2023-01-19T11:39:58.624Z,0.40
2023-01-19T11:42:28.504Z,0.40
2023-01-19T11:44:58.553Z,0.40
2023-01-19T11:47:30.550Z,0.60
2023-01-19T11:50:21.727Z,0.63
2023-01-19T11:52:53.763Z,0.65
2023-01-19T11:55:39.341Z,0.50
2023-01-19T11:58:06.718Z,0.43
2023-01-19T12:00:40.960Z,0.40
2023-01-19T12:03:47.074Z,0.40
2023-01-19T12:06:20.790Z,0.25
2023-01-19T12:08:54.406Z,0.50
2023-01-19T12:11:31.833Z,0.50
2023-01-19T12:14:00.693Z,0.40
2023-01-19T12:16:30.961Z,0.50
2023-01-19T12:19:02.945Z,0.43
2023-01-19T12:21:29.936Z,0.55
2023-01-19T12:24:12.512Z,0.30
2023-01-19T12:27:01.322Z,0.50
2023-01-19T12:29:31.758Z,0.50
2023-01-19T12:32:13.731Z,0.50
2023-01-19T12:34:52.223Z,0.55
2023-01-19T12:37:29.161Z,0.52
2023-01-19T12:40:22.416Z,0.60
2023-01-19T12:43:05.290Z,0.50
2023-01-19T12:45:35.451Z,0.30
2023-01-19T12:48:04.391Z,0.47
2023-01-19T12:50:38.565Z,0.40
2023-01-19T12:53:19.615Z,0.52
2023-01-19T12:56:00.185Z,0.50
2023-01-19T12:58:28.386Z,0.50
2023-01-19T13:01:21.418Z,0.30
2023-01-19T13:04:00.653Z,0.40
2023-01-19T13:06:49.340Z,0.40
2023-01-19T13:09:38.066Z,0.40
2023-01-19T13:12:14.121Z,0.40
2023-01-19T13:14:44.712Z,0.85
2023-01-19T13:17:34.236Z,0.43
2023-01-19T13:20:22.313Z,0.32
2023-01-19T13:23:20.855Z,0.47
2023-01-19T13:25:51.775Z,0.30
2023-01-19T13:28:20.336Z,0.28
2023-01-19T13:31:00.607Z,0.40
2023-01-19T13:33:33.001Z,0.35
2023-01-19T13:36:00.322Z,0.30
2023-01-19T13:38:29.652Z,0.88
2023-01-19T13:41:00.149Z,0.30
2023-01-19T13:43:32.924Z,0.40
2023-01-19T13:46:00.856Z,0.50
2023-01-19T13:48:28.614Z,0.68
2023-01-19T13:51:17.471Z,0.50
2023-01-19T13:53:54.726Z,0.60
2023-01-19T13:56:23.644Z,0.57
2023-01-19T13:59:10.101Z,0.47
2023-01-19T14:01:39.522Z,0.50
2023-01-19T14:04:07.479Z,1.77
2023-01-19T14:06:47.324Z,0.60
2023-01-19T14:09:20.354Z,0.40
2023-01-19T14:12:05.613Z,0.50
2023-01-19T14:14:33.099Z,0.50
2023-01-19T14:17:00.597Z,0.40
2023-01-19T14:19:28.816Z,0.45
2023-01-19T14:22:01.424Z,0.35
2023-01-19T14:24:32.480Z,0.73
2023-01-19T14:27:20.773Z,2.13
2023-01-19T14:29:51.132Z,0.93
2023-01-19T14:32:25.705Z,1.70
2023-01-19T14:35:13.358Z,3.92
2023-01-19T14:37:49.800Z,3.75
2023-01-19T14:40:20.906Z,2.45
2023-01-19T14:43:06.182Z,3.95
2023-01-19T14:45:46.654Z,2.20
2023-01-19T14:48:22.418Z,2.80
2023-01-19T14:51:02.762Z,3.10
2023-01-19T14:53:37.532Z,3.17
2023-01-19T14:56:07.261Z,4.43
2023-01-19T14:58:36.777Z,4.05
2023-01-19T15:01:05.053Z,9.55
2023-01-19T15:03:44.288Z,14.88
2023-01-19T15:06:19.089Z,25.70
2023-01-19T15:08:47.724Z,21.48
2023-01-19T15:11:27.008Z,17.63
2023-01-19T15:13:55.609Z,14.20
2023-01-19T15:16:24.081Z,12.40
2023-01-19T15:18:51.147Z,11.77
2023-01-19T15:21:21.194Z,8.02
2023-01-19T15:23:48.429Z,6.05
2023-01-19T15:26:18.043Z,6.53
2023-01-19T15:28:45.863Z,5.45
2023-01-19T15:31:18.273Z,5.47
2023-01-19T15:33:46.185Z,4.82
2023-01-19T15:36:17.846Z,3.70
2023-01-19T15:38:45.823Z,3.65
2023-01-19T15:41:24.359Z,3.30
2023-01-19T15:43:52.059Z,2.78
2023-01-19T15:46:23.536Z,2.92
2023-01-19T15:48:51.228Z,3.38
2023-01-19T15:51:21.097Z,4.32
2023-01-19T15:53:49.991Z,27.75
2023-01-19T15:56:19.676Z,29.63
2023-01-19T15:58:47.075Z,27.95
2023-01-19T16:01:20.258Z,31.73
2023-01-19T16:03:47.911Z,27.88
2023-01-19T16:06:16.849Z,22.77
2023-01-19T16:08:44.373Z,22.10
2023-01-19T16:11:15.892Z,20.45
2023-01-19T16:13:46.795Z,15.25
2023-01-19T16:16:19.751Z,12.07
2023-01-19T16:18:47.603Z,10.90
2023-01-19T16:21:15.166Z,9.32
2023-01-19T16:23:42.597Z,11.32
2023-01-19T16:26:35.172Z,11.15
2023-01-19T16:29:09.020Z,8.10
2023-01-19T16:31:39.569Z,7.45
2023-01-19T16:34:07.932Z,6.35
2023-01-19T16:36:37.238Z,7.20
2023-01-19T16:39:15.151Z,5.63
2023-01-19T16:41:44.018Z,6.63
2023-01-19T16:44:16.199Z,4.35
2023-01-19T16:46:45.683Z,4.57
2023-01-19T16:49:15.489Z,3.40
2023-01-19T16:51:43.226Z,3.60
2023-01-19T16:54:15.077Z,3.15
2023-01-19T16:56:42.497Z,2.63
2023-01-19T16:59:18.149Z,2.55
2023-01-19T17:01:46.047Z,1.92
2023-01-19T17:04:14.429Z,2.00
2023-01-19T17:06:41.913Z,1.50
2023-01-19T17:09:09.765Z,1.48
2023-01-19T17:11:40.570Z,1.73
2023-01-19T17:14:12.199Z,1.42
2023-01-19T17:16:39.226Z,1.23
2023-01-19T17:19:07.556Z,1.30
2023-01-19T17:21:35.572Z,1.20
2023-01-19T17:24:02.475Z,1.60
2023-01-19T17:26:31.279Z,1.10
2023-01-19T17:29:02.224Z,1.10
2023-01-19T17:31:30.424Z,1.25
2023-01-19T17:33:58.526Z,0.70
2023-01-19T17:36:27.893Z,0.60
2023-01-19T17:38:58.425Z,0.75
2023-01-19T17:41:30.658Z,0.65
2023-01-19T17:43:58.309Z,0.70
2023-01-19T17:46:27.782Z,0.50
2023-01-19T17:48:57.088Z,0.40
2023-01-19T17:51:24.837Z,0.40
2023-01-19T17:53:53.461Z,0.55
2023-01-19T17:56:22.887Z,1.05
2023-01-19T17:58:50.231Z,0.80
2023-01-19T18:01:23.794Z,0.68
2023-01-19T18:03:53.095Z,0.60
2023-01-19T18:06:20.912Z,0.60
2023-01-19T18:08:48.974Z,0.60
2023-01-19T18:11:19.201Z,0.63
2023-01-19T18:13:48.577Z,1.90
2023-01-19T18:16:22.735Z,1.85
2023-01-19T18:18:50.479Z,2.40
2023-01-19T18:21:18.684Z,3.60
2023-01-19T18:23:46.204Z,2.00
2023-01-19T18:26:18.492Z,2.60
2023-01-19T18:28:45.938Z,2.58
2023-01-19T18:31:15.318Z,3.00
2023-01-19T18:33:42.749Z,2.97
2023-01-19T18:36:11.593Z,1.95
2023-01-19T18:38:39.671Z,2.30
2023-01-19T18:41:10.839Z,1.95
2023-01-19T18:46:05.345Z,2.22
2023-01-19T18:48:32.784Z,2.30
2023-01-19T18:51:03.712Z,1.98
2023-01-19T18:53:32.395Z,2.30
2023-01-19T18:56:03.044Z,2.28
2023-01-19T18:58:31.959Z,2.58
2023-01-19T19:01:00.948Z,2.33
2023-01-19T19:03:28.754Z,2.15
2023-01-19T19:05:56.141Z,1.15
2023-01-19T19:08:23.481Z,1.25
2023-01-19T19:10:50.582Z,1.40
2023-01-19T19:13:20.812Z,1.42
2023-01-19T19:15:47.888Z,1.58
2023-01-19T19:18:16.683Z,2.15
2023-01-19T19:20:44.018Z,1.50
2023-01-19T19:23:12.234Z,2.22
2023-01-19T19:25:41.473Z,1.80
2023-01-19T19:28:08.533Z,1.92
2023-01-19T19:30:38.166Z,2.05
2023-01-19T19:33:05.714Z,1.83
2023-01-19T19:35:33.006Z,1.60
2023-01-19T19:38:00.283Z,2.08
2023-01-19T19:40:28.220Z,2.63
2023-01-19T19:42:57.644Z,2.60
2023-01-19T19:45:25.608Z,2.20
2023-01-19T19:47:52.785Z,1.38
2023-01-19T19:50:20.564Z,1.42
2023-01-19T19:52:49.231Z,3.20
2023-01-19T19:55:16.623Z,4.25
2023-01-19T19:57:44.028Z,7.82
2023-01-19T20:00:11.916Z,7.55
2023-01-19T20:02:40.236Z,8.68
2023-01-19T20:05:07.768Z,18.20
2023-01-19T20:07:37.666Z,39.55
2023-01-19T20:10:05.747Z,47.67
2023-01-19T20:12:34.338Z,73.45
2023-01-19T20:15:02.696Z,54.13
2023-01-19T20:17:29.986Z,49.83
2023-01-19T20:19:59.301Z,47.60
2023-01-19T20:22:26.371Z,35.25
2023-01-19T20:24:53.402Z,30.02
2023-01-19T20:27:20.404Z,31.33
2023-01-19T20:29:51.920Z,25.88
2023-01-19T20:32:18.932Z,19.88
2023-01-19T20:34:45.982Z,18.63
2023-01-19T20:37:13.094Z,11.27
2023-01-19T20:39:40.025Z,10.93
2023-01-19T20:42:11.970Z,11.18
2023-01-19T20:44:39.285Z,9.75
2023-01-19T20:47:07.525Z,9.75
2023-01-19T20:49:34.766Z,8.48
2023-01-19T20:52:01.850Z,7.50
2023-01-19T20:54:30.602Z,6.90
2023-01-19T20:57:03.461Z,5.85
2023-01-19T20:59:33.613Z,5.50
2023-01-19T21:02:01.034Z,4.88
2023-01-19T21:04:28.892Z,5.18
2023-01-19T21:06:57.261Z,3.55
2023-01-19T21:09:24.761Z,4.53
2023-01-19T21:11:52.110Z,3.00
2023-01-19T21:14:19.459Z,2.72
2023-01-19T21:16:47.151Z,2.47
2023-01-19T21:19:14.744Z,2.28
2023-01-19T21:21:42.983Z,2.28
2023-01-19T21:24:11.566Z,2.20
2023-01-19T21:26:39.398Z,1.88
2023-01-19T21:29:07.699Z,1.60
2023-01-19T21:31:37.002Z,1.30
2023-01-19T21:34:05.299Z,1.65
2023-01-19T21:36:32.577Z,1.33
2023-01-19T21:39:04.104Z,1.20
2023-01-19T21:41:31.359Z,0.90
2023-01-19T21:44:00.477Z,1.10
2023-01-19T21:46:33.454Z,1.05
2023-01-19T21:49:05.949Z,0.90
2023-01-19T21:51:35.553Z,0.95
2023-01-19T21:54:04.619Z,1.00
2023-01-19T21:56:38.909Z,0.70
2023-01-19T21:59:06.948Z,0.55
2023-01-19T22:01:35.418Z,0.63
2023-01-19T22:04:02.663Z,1.35
2023-01-19T22:06:30.408Z,0.70
2023-01-19T22:09:02.145Z,1.20
2023-01-19T22:11:29.476Z,0.75
2023-01-19T22:14:00.023Z,2.28
2023-01-19T22:19:00.115Z,1.52
2023-01-19T22:21:33.378Z,0.80
2023-01-19T22:24:03.107Z,0.90
2023-01-19T22:26:31.632Z,0.73
2023-01-19T22:29:00.762Z,1.00
2023-01-19T22:31:29.194Z,0.50
2023-01-19T22:33:57.063Z,0.70
2023-01-19T22:36:28.876Z,0.47
2023-01-19T22:38:58.364Z,0.60
2023-01-19T22:41:30.922Z,0.57
2023-01-19T22:44:00.780Z,0.75
2023-01-19T22:46:30.463Z,0.50
2023-01-19T22:48:58.131Z,0.63
2023-01-19T22:51:26.320Z,0.50
2023-01-19T22:53:53.377Z,0.40
2023-01-19T22:56:22.859Z,0.40
2023-01-19T22:58:50.560Z,0.40
2023-01-19T23:01:29.923Z,0.50
2023-01-19T23:03:57.186Z,0.40
2023-01-19T23:06:29.908Z,0.40
2023-01-19T23:08:59.514Z,0.28
2023-01-19T23:11:38.547Z,0.40
2023-01-19T23:14:07.731Z,0.40
2023-01-19T23:16:36.509Z,0.30
2023-01-19T23:19:04.673Z,0.40
2023-01-19T23:21:32.258Z,0.40
2023-01-19T23:24:02.979Z,0.40
2023-01-19T23:26:31.928Z,0.43
2023-01-19T23:29:01.358Z,0.40
2023-01-19T23:31:33.467Z,0.25
2023-01-19T23:34:03.673Z,0.40
2023-01-19T23:36:32.694Z,0.45
2023-01-19T23:39:01.970Z,0.40
2023-01-19T23:41:31.335Z,0.50
2023-01-19T23:43:58.371Z,0.30
2023-01-19T23:46:25.537Z,0.20
2023-01-19T23:48:53.054Z,0.32
2023-01-19T23:51:21.762Z,0.28
2023-01-19T23:53:49.175Z,0.30
2023-01-19T23:56:25.665Z,0.30
2023-01-19T23:58:58.681Z,0.20
